sensor_id;sensor_type;location;lat;lon;timestamp;pressure;altitude;pressure_sealevel;temperature;humidity
16100;BME280;8154;50.830;12.082;2023-06-22T00:01:55;99696.75;;;30.58;39.89
16100;BME280;8154;50.830;12.082;2023-06-22T00:04:23;99689.81;;;30.62;39.47
16100;BME280;8154;50.830;12.082;2023-06-22T00:07:00;99683.59;;;30.62;39.76
16100;BME280;8154;50.830;12.082;2023-06-22T00:09:45;99685.72;;;30.60;39.72
16100;BME280;8154;50.830;12.082;2023-06-22T00:12:13;99674.81;;;30.55;39.56
16100;BME280;8154;50.830;12.082;2023-06-22T00:18:18;99688.66;;;30.58;39.50
16100;BME280;8154;50.830;12.082;2023-06-22T00:20:50;99688.06;;;30.56;39.83
16100;BME280;8154;50.830;12.082;2023-06-22T00:23:16;99689.44;;;30.59;39.83
16100;BME280;8154;50.830;12.082;2023-06-22T00:29:35;99689.44;;;30.59;39.58
16100;BME280;8154;50.830;12.082;2023-06-22T00:35:28;99692.75;;;30.61;39.31
16100;BME280;8154;50.830;12.082;2023-06-22T00:39:13;99690.88;;;30.61;39.62
16100;BME280;8154;50.830;12.082;2023-06-22T00:42:02;99690.75;;;30.56;39.40
16100;BME280;8154;50.830;12.082;2023-06-22T00:47:29;99688.06;;;30.56;39.20
16100;BME280;8154;50.830;12.082;2023-06-22T00:49:58;99692.78;;;30.49;39.96
16100;BME280;8154;50.830;12.082;2023-06-22T00:56:16;99681.50;;;30.52;39.37
16100;BME280;8154;50.830;12.082;2023-06-22T00:58:54;99673.06;;;30.49;39.81
16100;BME280;8154;50.830;12.082;2023-06-22T01:01:24;99669.16;;;30.44;39.68
16100;BME280;8154;50.830;12.082;2023-06-22T01:03:51;99661.31;;;30.43;39.94
16100;BME280;8154;50.830;12.082;2023-06-22T01:06:27;99667.19;;;30.40;39.69
16100;BME280;8154;50.830;12.082;2023-06-22T01:12:18;99670.47;;;30.42;39.75
16100;BME280;8154;50.830;12.082;2023-06-22T01:15:33;99660.53;;;30.42;39.87
16100;BME280;8154;50.830;12.082;2023-06-22T01:18:52;99663.34;;;30.48;39.56
16100;BME280;8154;50.830;12.082;2023-06-22T01:21:21;99658.38;;;30.44;39.72
16100;BME280;8154;50.830;12.082;2023-06-22T01:24:44;99656.03;;;30.48;39.42
16100;BME280;8154;50.830;12.082;2023-06-22T01:30:19;99632.13;;;30.40;39.47
16100;BME280;8154;50.830;12.082;2023-06-22T01:32:50;99629.91;;;30.37;39.81
16100;BME280;8154;50.830;12.082;2023-06-22T01:35:22;99645.72;;;30.45;39.54
16100;BME280;8154;50.830;12.082;2023-06-22T01:38:16;99656.03;;;30.48;39.29
16100;BME280;8154;50.830;12.082;2023-06-22T01:41:10;99647.72;;;30.50;39.59
16100;BME280;8154;50.830;12.082;2023-06-22T01:47:16;99676.81;;;30.48;39.47
16100;BME280;8154;50.830;12.082;2023-06-22T01:49:51;99679.53;;;30.48;39.30
16100;BME280;8154;50.830;12.082;2023-06-22T01:52:46;99676.81;;;30.48;39.65
16100;BME280;8154;50.830;12.082;2023-06-22T01:55:47;99681.38;;;30.47;39.27
16100;BME280;8154;50.830;12.082;2023-06-22T01:58:15;99679.75;;;30.46;39.29
16100;BME280;8154;50.830;12.082;2023-06-22T02:00:55;99674.34;;;30.46;39.54
16100;BME280;8154;50.830;12.082;2023-06-22T02:04:02;99656.41;;;30.40;39.49
16100;BME280;8154;50.830;12.082;2023-06-22T02:10:28;99666.28;;;30.46;39.31
16100;BME280;8154;50.830;12.082;2023-06-22T02:13:02;99642.34;;;30.38;39.26
16100;BME280;8154;50.830;12.082;2023-06-22T02:15:31;99652.78;;;30.46;39.58
16100;BME280;8154;50.830;12.082;2023-06-22T02:18:04;99665.69;;;30.44;39.51
16100;BME280;8154;50.830;12.082;2023-06-22T02:24:18;99650.69;;;30.36;39.30
16100;BME280;8154;50.830;12.082;2023-06-22T02:26:59;99659.22;;;30.45;39.28
16100;BME280;8154;50.830;12.082;2023-06-22T02:29:33;99654.88;;;30.44;39.52
16100;BME280;8154;50.830;12.082;2023-06-22T02:32:00;99652.78;;;30.46;39.04
16100;BME280;8154;50.830;12.082;2023-06-22T02:34:27;99650.28;;;30.44;39.33
16100;BME280;8154;50.830;12.082;2023-06-22T02:37:04;99649.25;;;30.46;39.14
16100;BME280;8154;50.830;12.082;2023-06-22T02:40:04;99653.34;;;30.48;39.02
16100;BME280;8154;50.830;12.082;2023-06-22T02:42:31;99664.97;;;30.49;39.17
16100;BME280;8154;50.830;12.082;2023-06-22T02:45:28;99662.03;;;30.50;39.04
16100;BME280;8154;50.830;12.082;2023-06-22T02:47:55;99668.97;;;30.46;39.37
16100;BME280;8154;50.830;12.082;2023-06-22T02:50:21;99669.75;;;30.47;39.26
16100;BME280;8154;50.830;12.082;2023-06-22T02:52:48;99659.22;;;30.45;39.15
16100;BME280;8154;50.830;12.082;2023-06-22T02:55:14;99651.47;;;30.49;38.90
16100;BME280;8154;50.830;12.082;2023-06-22T02:57:46;99640.34;;;30.45;39.13
16100;BME280;8154;50.830;12.082;2023-06-22T03:00:14;99640.34;;;30.45;39.27
16100;BME280;8154;50.830;12.082;2023-06-22T03:02:47;99643.88;;;30.46;38.94
16100;BME280;8154;50.830;12.082;2023-06-22T03:05:14;99653.00;;;30.44;39.17
16100;BME280;8154;50.830;12.082;2023-06-22T03:11:13;99656.50;;;30.45;39.36
16100;BME280;8154;50.830;12.082;2023-06-22T03:13:43;99656.50;;;30.45;38.91
16100;BME280;8154;50.830;12.082;2023-06-22T03:16:21;99657.81;;;30.42;39.31
16100;BME280;8154;50.830;12.082;2023-06-22T03:22:19;99653.22;;;30.43;38.88
16100;BME280;8154;50.830;12.082;2023-06-22T03:24:45;99653.47;;;30.41;39.35
16100;BME280;8154;50.830;12.082;2023-06-22T03:27:11;99673.19;;;30.42;38.93
16100;BME280;8154;50.830;12.082;2023-06-22T03:29:51;99687.50;;;30.42;38.86
16100;BME280;8154;50.830;12.082;2023-06-22T03:32:18;99667.22;;;30.28;38.97
16100;BME280;8154;50.830;12.082;2023-06-22T03:34:45;99690.41;;;30.41;38.83
16100;BME280;8154;50.830;12.082;2023-06-22T03:37:15;99703.91;;;30.41;39.23
16100;BME280;8154;50.830;12.082;2023-06-22T03:39:42;99713.03;;;30.40;39.09
16100;BME280;8154;50.830;12.082;2023-06-22T03:42:13;99730.06;;;30.40;38.93
16100;BME280;8154;50.830;12.082;2023-06-22T03:45:01;99741.31;;;30.37;38.93
16100;BME280;8154;50.830;12.082;2023-06-22T03:47:32;99750.47;;;30.36;39.38
16100;BME280;8154;50.830;12.082;2023-06-22T03:50:04;99758.56;;;30.36;39.38
16100;BME280;8154;50.830;12.082;2023-06-22T03:52:32;99754.66;;;30.32;39.03
16100;BME280;8154;50.830;12.082;2023-06-22T03:55:01;99777.06;;;30.33;38.92
16100;BME280;8154;50.830;12.082;2023-06-22T03:57:28;99787.25;;;30.31;39.07
16100;BME280;8154;50.830;12.082;2023-06-22T03:59:56;99784.09;;;30.22;39.13
16100;BME280;8154;50.830;12.082;2023-06-22T04:02:39;99808.25;;;30.29;39.43
16100;BME280;8154;50.830;12.082;2023-06-22T04:05:05;99797.81;;;30.32;38.97
16100;BME280;8154;50.830;12.082;2023-06-22T04:07:36;99801.56;;;30.31;39.35
16100;BME280;8154;50.830;12.082;2023-06-22T04:10:08;99808.59;;;30.32;39.27
16100;BME280;8154;50.830;12.082;2023-06-22T04:12:35;99801.94;;;30.35;39.00
16100;BME280;8154;50.830;12.082;2023-06-22T04:15:02;99800.75;;;30.31;39.36
16100;BME280;8154;50.830;12.082;2023-06-22T04:17:30;99798.03;;;30.31;39.11
16100;BME280;8154;50.830;12.082;2023-06-22T04:27:11;99781.16;;;30.35;38.82
16100;BME280;8154;50.830;12.082;2023-06-22T04:29:56;99770.38;;;30.35;38.90
16100;BME280;8154;50.830;12.082;2023-06-22T04:32:44;99756.44;;;30.27;38.95
16100;BME280;8154;50.830;12.082;2023-06-22T04:35:12;99765.34;;;30.39;39.10
16100;BME280;8154;50.830;12.082;2023-06-22T04:37:40;99751.88;;;30.39;38.76
16100;BME280;8154;50.830;12.082;2023-06-22T04:40:09;99757.84;;;30.41;38.68
16100;BME280;8154;50.830;12.082;2023-06-22T04:42:38;99752.47;;;30.41;38.99
16100;BME280;8154;50.830;12.082;2023-06-22T04:45:05;99739.53;;;30.43;38.86
16100;BME280;8154;50.830;12.082;2023-06-22T04:47:32;99716.81;;;30.39;39.07
16100;BME280;8154;50.830;12.082;2023-06-22T04:49:58;99691.00;;;30.43;38.72
16100;BME280;8154;50.830;12.082;2023-06-22T04:52:50;99626.00;;;30.44;38.64
16100;BME280;8154;50.830;12.082;2023-06-22T04:56:20;99637.03;;;30.43;38.78
16100;BME280;8154;50.830;12.082;2023-06-22T04:58:48;99669.66;;;30.41;39.00
16100;BME280;8154;50.830;12.082;2023-06-22T05:01:14;99638.81;;;30.37;38.94
16100;BME280;8154;50.830;12.082;2023-06-22T05:03:50;99632.94;;;30.40;39.10
16100;BME280;8154;50.830;12.082;2023-06-22T05:06:16;99623.00;;;30.41;38.78
16100;BME280;8154;50.830;12.082;2023-06-22T05:08:44;99601.41;;;30.41;38.94
16100;BME280;8154;50.830;12.082;2023-06-22T05:11:11;99584.16;;;30.42;39.08
16100;BME280;8154;50.830;12.082;2023-06-22T05:17:29;99552.41;;;30.44;38.66
16100;BME280;8154;50.830;12.082;2023-06-22T05:20:12;99529.16;;;30.43;38.57
16100;BME280;8154;50.830;12.082;2023-06-22T05:22:40;99525.66;;;30.42;38.55
16100;BME280;8154;50.830;12.082;2023-06-22T05:28:25;99543.72;;;30.42;38.57
16100;BME280;8154;50.830;12.082;2023-06-22T05:34:54;99576.31;;;30.40;38.91
16100;BME280;8154;50.830;12.082;2023-06-22T05:41:09;99592.50;;;30.40;38.69
16100;BME280;8154;50.830;12.082;2023-06-22T05:43:40;99592.25;;;30.42;38.88
16100;BME280;8154;50.830;12.082;2023-06-22T05:46:29;99594.97;;;30.42;38.61
16100;BME280;8154;50.830;12.082;2023-06-22T05:49:15;99592.25;;;30.42;38.59
16100;BME280;8154;50.830;12.082;2023-06-22T05:54:23;99605.97;;;30.40;38.96
16100;BME280;8154;50.830;12.082;2023-06-22T06:04:31;99630.59;;;30.44;38.80
16100;BME280;8154;50.830;12.082;2023-06-22T06:10:06;99625.81;;;30.46;38.86
16100;BME280;8154;50.830;12.082;2023-06-22T06:16:27;99614.31;;;30.51;39.02
16100;BME280;8154;50.830;12.082;2023-06-22T06:18:55;99619.47;;;30.52;38.86
16100;BME280;8154;50.830;12.082;2023-06-22T06:21:23;99631.88;;;30.53;38.89
16100;BME280;8154;50.830;12.082;2023-06-22T06:23:50;99635.97;;;30.56;38.65
16100;BME280;8154;50.830;12.082;2023-06-22T06:26:21;99630.56;;;30.56;38.74
16100;BME280;8154;50.830;12.082;2023-06-22T06:32:11;99627.16;;;30.60;38.66
16100;BME280;8154;50.830;12.082;2023-06-22T06:34:57;99612.16;;;30.53;38.72
16100;BME280;8154;50.830;12.082;2023-06-22T06:37:23;99629.38;;;30.63;39.01
16100;BME280;8154;50.830;12.082;2023-06-22T06:39:49;99618.13;;;30.66;38.89
16100;BME280;8154;50.830;12.082;2023-06-22T06:42:48;99607.94;;;30.57;38.67
16100;BME280;8154;50.830;12.082;2023-06-22T06:45:31;99625.53;;;30.71;38.78
16100;BME280;8154;50.830;12.082;2023-06-22T06:48:34;99616.72;;;30.75;38.75
16100;BME280;8154;50.830;12.082;2023-06-22T06:51:02;99626.47;;;30.76;38.92
16100;BME280;8154;50.830;12.082;2023-06-22T06:53:32;99633.47;;;30.77;38.71
16100;BME280;8154;50.830;12.082;2023-06-22T06:56:21;99623.28;;;30.79;38.84
16100;BME280;8154;50.830;12.082;2023-06-22T06:58:50;99625.75;;;30.81;38.97
16100;BME280;8154;50.830;12.082;2023-06-22T07:01:17;99614.94;;;30.81;38.93
16100;BME280;8154;50.830;12.082;2023-06-22T07:03:49;99607.69;;;30.81;38.93
16100;BME280;8154;50.830;12.082;2023-06-22T07:06:35;99600.97;;;30.84;38.83
16100;BME280;8154;50.830;12.082;2023-06-22T07:09:02;99593.69;;;30.84;38.53
16100;BME280;8154;50.830;12.082;2023-06-22T07:11:42;99600.16;;;30.83;38.62
16100;BME280;8154;50.830;12.082;2023-06-22T07:14:28;99600.16;;;30.83;38.75
16100;BME280;8154;50.830;12.082;2023-06-22T07:17:19;99598.50;;;30.82;38.61
16100;BME280;8154;50.830;12.082;2023-06-22T07:20:15;99597.47;;;30.83;38.82
16100;BME280;8154;50.830;12.082;2023-06-22T07:23:00;99593.59;;;30.79;38.82
16100;BME280;8154;50.830;12.082;2023-06-22T07:25:27;99593.13;;;30.82;38.96
16100;BME280;8154;50.830;12.082;2023-06-22T07:27:58;99588.78;;;30.81;39.02
16100;BME280;8154;50.830;12.082;2023-06-22T07:30:31;99590.41;;;30.82;38.98
16100;BME280;8154;50.830;12.082;2023-06-22T07:33:01;99583.75;;;30.85;38.78
16100;BME280;8154;50.830;12.082;2023-06-22T07:35:37;99583.50;;;30.86;38.92
16100;BME280;8154;50.830;12.082;2023-06-22T07:38:03;99578.66;;;30.88;39.06
16100;BME280;8154;50.830;12.082;2023-06-22T07:40:31;99575.94;;;30.88;38.73
16100;BME280;8154;50.830;12.082;2023-06-22T07:43:26;99585.22;;;30.92;39.03
16100;BME280;8154;50.830;12.082;2023-06-22T07:45:53;99568.09;;;30.87;39.01
16100;BME280;8154;50.830;12.082;2023-06-22T07:48:23;99562.22;;;30.90;38.75
16100;BME280;8154;50.830;12.082;2023-06-22T07:53:21;99563.69;;;30.97;38.97
16100;BME280;8154;50.830;12.082;2023-06-22T07:59:23;99566.41;;;30.97;38.87
16100;BME280;8154;50.830;12.082;2023-06-22T08:01:50;99563.69;;;30.97;39.25
16100;BME280;8154;50.830;12.082;2023-06-22T08:04:21;99559.97;;;30.98;38.80
16100;BME280;8154;50.830;12.082;2023-06-22T08:07:15;99560.75;;;30.99;38.82
16100;BME280;8154;50.830;12.082;2023-06-22T08:09:56;99521.31;;;30.81;39.01
16100;BME280;8154;50.830;12.082;2023-06-22T08:12:41;99535.56;;;30.93;38.98
16100;BME280;8154;50.830;12.082;2023-06-22T08:15:20;99551.13;;;31.03;39.04
16100;BME280;8154;50.830;12.082;2023-06-22T08:17:49;99541.97;;;31.04;39.11
16100;BME280;8154;50.830;12.082;2023-06-22T08:20:57;99542.53;;;31.06;39.23
16100;BME280;8154;50.830;12.082;2023-06-22T08:25:59;99544.19;;;31.07;39.13
16100;BME280;8154;50.830;12.082;2023-06-22T08:28:27;99530.13;;;31.05;39.18
16100;BME280;8154;50.830;12.082;2023-06-22T08:31:23;99535.34;;;31.11;39.04
16100;BME280;8154;50.830;12.082;2023-06-22T08:47:39;99529.69;;;31.13;39.17
16100;BME280;8154;50.830;12.082;2023-06-22T08:50:10;99530.78;;;31.12;39.34
16100;BME280;8154;50.830;12.082;2023-06-22T08:52:41;99535.94;;;31.13;38.98
16100;BME280;8154;50.830;12.082;2023-06-22T08:55:08;99531.34;;;31.14;38.95
16100;BME280;8154;50.830;12.082;2023-06-22T08:57:35;99523.00;;;31.15;38.93
16100;BME280;8154;50.830;12.082;2023-06-22T09:00:30;99523.00;;;31.15;38.95
16100;BME280;8154;50.830;12.082;2023-06-22T09:03:13;99529.22;;;31.16;39.15
16100;BME280;8154;50.830;12.082;2023-06-22T09:05:39;99519.00;;;31.18;39.17
16100;BME280;8154;50.830;12.082;2023-06-22T09:08:11;99522.28;;;31.20;39.23
16100;BME280;8154;50.830;12.082;2023-06-22T09:10:42;99516.63;;;31.21;39.00
16100;BME280;8154;50.830;12.082;2023-06-22T09:16:16;99513.69;;;31.23;39.12
16100;BME280;8154;50.830;12.082;2023-06-22T09:18:52;99516.38;;;31.23;39.05
16100;BME280;8154;50.830;12.082;2023-06-22T09:21:24;99516.13;;;31.24;38.93
16100;BME280;8154;50.830;12.082;2023-06-22T09:23:55;99513.44;;;31.24;39.37
16100;BME280;8154;50.830;12.082;2023-06-22T09:26:31;99499.94;;;31.24;39.32
16100;BME280;8154;50.830;12.082;2023-06-22T09:29:28;99497.81;;;31.26;39.24
16100;BME280;8154;50.830;12.082;2023-06-22T09:32:46;99495.91;;;31.27;39.07
16100;BME280;8154;50.830;12.082;2023-06-22T09:35:14;99487.81;;;31.27;39.27
16100;BME280;8154;50.830;12.082;2023-06-22T09:37:41;99486.78;;;31.28;39.26
16100;BME280;8154;50.830;12.082;2023-06-22T09:40:15;99485.94;;;31.27;38.98
16100;BME280;8154;50.830;12.082;2023-06-22T09:42:47;99488.06;;;31.25;39.32
16100;BME280;8154;50.830;12.082;2023-06-22T09:45:14;99490.28;;;31.28;39.16
16100;BME280;8154;50.830;12.082;2023-06-22T09:50:56;99489.00;;;31.31;38.98
16100;BME280;8154;50.830;12.082;2023-06-22T09:57:07;99467.03;;;31.27;39.34
16100;BME280;8154;50.830;12.082;2023-06-22T09:59:56;99462.72;;;31.26;39.23
16100;BME280;8154;50.830;12.082;2023-06-22T10:02:33;99473.06;;;31.29;39.38
16100;BME280;8154;50.830;12.082;2023-06-22T10:08:19;99459.53;;;31.29;39.03
16100;BME280;8154;50.830;12.082;2023-06-22T10:10:57;99465.41;;;31.26;39.08
16100;BME280;8154;50.830;12.082;2023-06-22T10:13:30;99454.94;;;31.30;39.06
16100;BME280;8154;50.830;12.082;2023-06-22T10:16:07;99456.59;;;31.31;38.90
16100;BME280;8154;50.830;12.082;2023-06-22T10:19:11;99460.09;;;31.31;39.19
16100;BME280;8154;50.830;12.082;2023-06-22T10:22:21;99454.69;;;31.31;38.92
16100;BME280;8154;50.830;12.082;2023-06-22T10:25:11;99441.53;;;31.35;38.94
16100;BME280;8154;50.830;12.082;2023-06-22T10:27:43;99432.28;;;31.31;39.01
16100;BME280;8154;50.830;12.082;2023-06-22T10:30:11;99433.41;;;31.35;38.85
16100;BME280;8154;50.830;12.082;2023-06-22T10:32:45;99432.03;;;31.32;38.89
16100;BME280;8154;50.830;12.082;2023-06-22T10:35:23;99432.28;;;31.31;39.12
16100;BME280;8154;50.830;12.082;2023-06-22T10:38:06;99424.25;;;31.36;39.32
16100;BME280;8154;50.830;12.082;2023-06-22T10:40:37;99434.25;;;31.35;38.80
16100;BME280;8154;50.830;12.082;2023-06-22T10:43:28;99429.44;;;31.37;39.16
16100;BME280;8154;50.830;12.082;2023-06-22T10:45:54;99432.13;;;31.37;39.19
16100;BME280;8154;50.830;12.082;2023-06-22T10:48:21;99430.22;;;31.38;39.01
16100;BME280;8154;50.830;12.082;2023-06-22T10:50:48;99422.38;;;31.36;38.83
16100;BME280;8154;50.830;12.082;2023-06-22T10:53:19;99425.66;;;31.38;39.25
16100;BME280;8154;50.830;12.082;2023-06-22T10:55:49;99424.03;;;31.37;38.75
16100;BME280;8154;50.830;12.082;2023-06-22T10:58:26;99413.22;;;31.37;39.12
16100;BME280;8154;50.830;12.082;2023-06-22T11:01:10;99419.41;;;31.38;38.88
16100;BME280;8154;50.830;12.082;2023-06-22T11:09:42;99413.22;;;31.37;38.87
16100;BME280;8154;50.830;12.082;2023-06-22T11:12:44;99405.13;;;31.37;38.95
16100;BME280;8154;50.830;12.082;2023-06-22T11:15:19;99408.88;;;31.36;39.15
16100;BME280;8154;50.830;12.082;2023-06-22T11:18:21;99394.22;;;31.32;38.88
16100;BME280;8154;50.830;12.082;2023-06-22T11:21:42;99397.81;;;31.38;38.77
16100;BME280;8154;50.830;12.082;2023-06-22T11:24:25;99394.31;;;31.37;38.92
16100;BME280;8154;50.830;12.082;2023-06-22T11:27:15;99384.06;;;31.39;38.96
16100;BME280;8154;50.830;12.082;2023-06-22T11:29:44;99379.72;;;31.38;39.20
16100;BME280;8154;50.830;12.082;2023-06-22T11:35:39;99376.53;;;31.41;39.08
16100;BME280;8154;50.830;12.082;2023-06-22T11:48:34;99350.84;;;31.39;39.00
16100;BME280;8154;50.830;12.082;2023-06-22T11:51:29;99348.69;;;31.41;39.07
16100;BME280;8154;50.830;12.082;2023-06-22T11:58:07;99347.63;;;31.42;38.88
16100;BME280;8154;50.830;12.082;2023-06-22T12:04:25;99329.50;;;31.37;38.94
16100;BME280;8154;50.830;12.082;2023-06-22T12:10:05;99313.28;;;31.37;38.96
16100;BME280;8154;50.830;12.082;2023-06-22T12:16:41;99313.28;;;31.37;38.75
16100;BME280;8154;50.830;12.082;2023-06-22T12:23:18;99294.91;;;31.39;38.82
16100;BME280;8154;50.830;12.082;2023-06-22T12:29:09;99294.91;;;31.39;38.96
16100;BME280;8154;50.830;12.082;2023-06-22T12:38:35;99283.88;;;31.41;39.12
16100;BME280;8154;50.830;12.082;2023-06-22T12:44:58;99270.63;;;31.39;39.03
16100;BME280;8154;50.830;12.082;2023-06-22T12:56:46;99254.09;;;31.36;38.64
16100;BME280;8154;50.830;12.082;2023-06-22T12:59:15;99255.22;;;31.40;38.90
16100;BME280;8154;50.830;12.082;2023-06-22T13:01:43;99257.69;;;31.41;38.98
16100;BME280;8154;50.830;12.082;2023-06-22T13:04:36;99251.78;;;31.44;38.88
16100;BME280;8154;50.830;12.082;2023-06-22T13:10:38;99247.44;;;31.43;39.05
16100;BME280;8154;50.830;12.082;2023-06-22T13:13:06;99245.53;;;31.44;38.60
16100;BME280;8154;50.830;12.082;2023-06-22T13:15:42;99243.09;;;31.42;38.73
16100;BME280;8154;50.830;12.082;2023-06-22T13:18:27;99239.09;;;31.45;38.85
16100;BME280;8154;50.830;12.082;2023-06-22T13:24:22;99243.41;;;31.46;38.53
16100;BME280;8154;50.830;12.082;2023-06-22T13:27:20;99236.13;;;31.46;38.82
16100;BME280;8154;50.830;12.082;2023-06-22T13:29:52;99226.94;;;31.47;38.76
16100;BME280;8154;50.830;12.082;2023-06-22T13:35:54;99213.94;;;31.44;38.72
16100;BME280;8154;50.830;12.082;2023-06-22T13:38:21;99222.63;;;31.46;38.90
16100;BME280;8154;50.830;12.082;2023-06-22T13:41:00;99224.50;;;31.46;38.75
16100;BME280;8154;50.830;12.082;2023-06-22T13:43:28;99222.38;;;31.48;38.35
16100;BME280;8154;50.830;12.082;2023-06-22T13:45:54;99220.47;;;31.48;38.70
16100;BME280;8154;50.830;12.082;2023-06-22T13:48:39;99214.03;;;31.49;38.72
16100;BME280;8154;50.830;12.082;2023-06-22T13:54:46;99199.94;;;31.47;38.70
16100;BME280;8154;50.830;12.082;2023-06-22T14:00:36;99185.91;;;31.50;38.64
16100;BME280;8154;50.830;12.082;2023-06-22T14:06:55;99167.00;;;31.50;38.71
16100;BME280;8154;50.830;12.082;2023-06-22T14:17:40;99143.22;;;31.47;38.75
16100;BME280;8154;50.830;12.082;2023-06-22T14:24:31;99137.31;;;31.50;38.62
16100;BME280;8154;50.830;12.082;2023-06-22T14:33:51;99127.06;;;31.52;38.67
16100;BME280;8154;50.830;12.082;2023-06-22T14:36:36;99118.97;;;31.52;38.35
16100;BME280;8154;50.830;12.082;2023-06-22T14:39:06;99121.09;;;31.50;38.70
16100;BME280;8154;50.830;12.082;2023-06-22T14:44:56;99104.63;;;31.52;38.43
16100;BME280;8154;50.830;12.082;2023-06-22T14:47:53;99109.78;;;31.53;38.33
16100;BME280;8154;50.830;12.082;2023-06-22T14:50:46;99103.53;;;31.53;38.60
16100;BME280;8154;50.830;12.082;2023-06-22T14:53:41;99094.38;;;31.54;38.39
16100;BME280;8154;50.830;12.082;2023-06-22T14:56:21;99103.28;;;31.54;38.53
16100;BME280;8154;50.830;12.082;2023-06-22T14:59:15;99096.00;;;31.55;38.53
16100;BME280;8154;50.830;12.082;2023-06-22T15:01:42;99089.78;;;31.54;38.27
16100;BME280;8154;50.830;12.082;2023-06-22T15:04:08;99080.63;;;31.55;38.52
16100;BME280;8154;50.830;12.082;2023-06-22T15:06:44;99072.25;;;31.57;38.61
16100;BME280;8154;50.830;12.082;2023-06-22T15:09:31;99057.94;;;31.56;38.54
16100;BME280;8154;50.830;12.082;2023-06-22T15:12:15;99062.03;;;31.59;38.23
16100;BME280;8154;50.830;12.082;2023-06-22T15:14:59;99062.81;;;31.59;38.23
16100;BME280;8154;50.830;12.082;2023-06-22T15:17:32;99061.19;;;31.58;38.32
16100;BME280;8154;50.830;12.082;2023-06-22T15:19:59;99025.19;;;31.48;38.31
16100;BME280;8154;50.830;12.082;2023-06-22T15:23:01;99045.56;;;31.60;38.28
16100;BME280;8154;50.830;12.082;2023-06-22T15:25:30;99036.38;;;31.61;38.25
16100;BME280;8154;50.830;12.082;2023-06-22T15:31:05;99033.41;;;31.63;38.28
16100;BME280;8154;50.830;12.082;2023-06-22T15:36:49;99019.38;;;31.66;37.94
16100;BME280;8154;50.830;12.082;2023-06-22T15:39:16;99012.59;;;31.63;37.91
16100;BME280;8154;50.830;12.082;2023-06-22T15:41:47;99019.63;;;31.64;38.16
16100;BME280;8154;50.830;12.082;2023-06-22T15:44:20;99014.22;;;31.64;37.93
16100;BME280;8154;50.830;12.082;2023-06-22T15:47:10;99010.44;;;31.65;38.00
16100;BME280;8154;50.830;12.082;2023-06-22T15:49:54;99005.03;;;31.65;37.98
16100;BME280;8154;50.830;12.082;2023-06-22T15:56:35;98986.13;;;31.65;37.39
16100;BME280;8154;50.830;12.082;2023-06-22T15:59:30;99000.25;;;31.72;37.36
16100;BME280;8154;50.830;12.082;2023-06-22T16:02:04;98991.00;;;31.63;37.42
16100;BME280;8154;50.830;12.082;2023-06-22T16:04:30;98993.75;;;31.73;37.52
16100;BME280;8154;50.830;12.082;2023-06-22T16:07:15;98988.94;;;31.80;37.58
16100;BME280;8154;50.830;12.082;2023-06-22T16:09:42;98991.66;;;31.80;37.84
16100;BME280;8154;50.830;12.082;2023-06-22T16:12:10;98979.19;;;31.79;37.55
16100;BME280;8154;50.830;12.082;2023-06-22T16:14:37;98988.91;;;31.75;37.64
16100;BME280;8154;50.830;12.082;2023-06-22T16:17:13;98980.75;;;31.70;37.94
16100;BME280;8154;50.830;12.082;2023-06-22T16:19:56;98986.47;;;31.74;37.78
16100;BME280;8154;50.830;12.082;2023-06-22T16:22:25;98970.50;;;31.72;38.29
16100;BME280;8154;50.830;12.082;2023-06-22T16:24:55;98964.84;;;31.74;38.28
16100;BME280;8154;50.830;12.082;2023-06-22T16:27:24;98951.06;;;31.75;38.00
16100;BME280;8154;50.830;12.082;2023-06-22T16:29:59;98958.09;;;31.76;38.27
16100;BME280;8154;50.830;12.082;2023-06-22T16:35:52;98945.38;;;31.72;38.91
16100;BME280;8154;50.830;12.082;2023-06-22T16:38:18;98937.81;;;31.74;38.25
16100;BME280;8154;50.830;12.082;2023-06-22T16:40:44;98942.44;;;31.78;38.32
16100;BME280;8154;50.830;12.082;2023-06-22T16:43:11;98940.53;;;31.74;38.42
16100;BME280;8154;50.830;12.082;2023-06-22T16:46:02;98933.50;;;31.78;38.41
16100;BME280;8154;50.830;12.082;2023-06-22T16:48:50;98925.69;;;31.81;38.24
16100;BME280;8154;50.830;12.082;2023-06-22T16:51:21;98926.28;;;31.83;37.97
16100;BME280;8154;50.830;12.082;2023-06-22T16:53:55;98920.25;;;31.76;38.22
16100;BME280;8154;50.830;12.082;2023-06-22T16:56:30;98915.41;;;31.78;38.43
16100;BME280;8154;50.830;12.082;2023-06-22T16:58:58;98902.44;;;31.75;38.38
16100;BME280;8154;50.830;12.082;2023-06-22T17:02:04;98901.38;;;31.81;38.13
16100;BME280;8154;50.830;12.082;2023-06-22T17:04:33;98894.31;;;31.75;38.28
16100;BME280;8154;50.830;12.082;2023-06-22T17:07:31;98875.97;;;31.77;38.53
16100;BME280;8154;50.830;12.082;2023-06-22T17:10:00;98837.34;;;31.82;37.93
16100;BME280;8154;50.830;12.082;2023-06-22T17:12:32;98866.31;;;31.86;38.16
16100;BME280;8154;50.830;12.082;2023-06-22T17:15:33;98862.19;;;31.79;38.40
16100;BME280;8154;50.830;12.082;2023-06-22T17:18:03;98855.94;;;31.73;38.42
16100;BME280;8154;50.830;12.082;2023-06-22T17:20:32;98849.47;;;31.79;38.00
16100;BME280;8154;50.830;12.082;2023-06-22T17:22:59;98845.50;;;31.92;37.71
16100;BME280;8154;50.830;12.082;2023-06-22T17:28:15;98844.38;;;31.83;38.11
16100;BME280;8154;50.830;12.082;2023-06-22T17:30:41;98846.50;;;31.81;38.15
16100;BME280;8154;50.830;12.082;2023-06-22T17:33:09;98834.63;;;31.77;37.88
16100;BME280;8154;50.830;12.082;2023-06-22T17:36:12;98829.00;;;31.88;37.47
16100;BME280;8154;50.830;12.082;2023-06-22T17:38:39;98824.94;;;31.86;37.75
16100;BME280;8154;50.830;12.082;2023-06-22T17:41:07;98824.41;;;31.89;37.41
16100;BME280;8154;50.830;12.082;2023-06-22T17:44:00;98819.81;;;31.84;37.54
16100;BME280;8154;50.830;12.082;2023-06-22T17:46:37;98821.38;;;31.80;38.08
16100;BME280;8154;50.830;12.082;2023-06-22T17:49:08;98814.59;;;31.78;37.90
16100;BME280;8154;50.830;12.082;2023-06-22T17:51:39;98813.25;;;31.75;38.04